»·PEaware :: N5491J KTOA-KHHR

N5491J :: KTOA-KHHR

FLIGHT INFORMATION

Flight Status: Arrived
Operator: Privately registered:
United States
More flights under this callsign
Pilot: Aero Safety Training (369)
Aircraft: CESSNA 172 SKYHAWK
(C172)
More flights by this aircraft type
Origin: KTOA Zamperini
United States
Destination: KHHR Northrop/Hawthorne Mun
United States
More flights between these airports :: More routes between these airports
Route: +LAX170R LIMBO V64 SLI SLI340 WELLZ
File this flight plan on PilotEdge
Remarks: pracriceing ifr imc conditions 600 and 2 miles
Altitude:
(Current/Filed)
30ft
Speed:
(Current/Filed)
105kts
Departed: 20-Jan-15 10:18 AM
Arrived: 20-Jan-15 10:47 AM
Distance/Time
Traveled:
7nm/0:29
Distance/Time
To Go:
Arrived

Flight Plot

Page will automatically refresh every two minutes.

Flight plan parsing failed; only flown route is shown


Map Options




Map Legend


Flown Route
Filed Route
Departure Airport
Arrival Airport
Navaid (VOR, NDB)
Fix

Horizontal Profiles

Position Reports

Time Latitude Longitude Heading Altitude Ground
Speed
20-Jan-15 09:46 33.803077 -118.342319 129 106ft 24kts
20-Jan-15 09:50 33.796832 -118.335758 11 106ft 0kts
20-Jan-15 09:51 33.796834 -118.335758 11 106ft 0kts
20-Jan-15 09:52 33.796835 -118.335757 11 106ft 0kts
20-Jan-15 09:53 33.796837 -118.335757 11 106ft 0kts
20-Jan-15 09:54 33.796839 -118.335756 11 106ft 0kts
20-Jan-15 09:55 33.796840 -118.335756 11 106ft 0kts
20-Jan-15 09:56 33.796842 -118.335756 11 106ft 0kts
20-Jan-15 09:57 33.796845 -118.335755 11 106ft 0kts
20-Jan-15 09:58 33.796847 -118.335754 11 106ft 0kts
20-Jan-15 09:59 33.796850 -118.335754 11 106ft 0kts
20-Jan-15 10:00 33.796853 -118.335753 11 106ft 0kts
20-Jan-15 10:01 33.796856 -118.335752 11 106ft 0kts
20-Jan-15 10:02 33.796858 -118.335751 11 106ft 0kts
20-Jan-15 10:03 33.796861 -118.335751 11 106ft 0kts
20-Jan-15 10:04 33.796864 -118.335750 11 106ft 0kts
20-Jan-15 10:05 33.796867 -118.335749 11 106ft 0kts
20-Jan-15 10:06 33.796869 -118.335749 11 106ft 0kts
20-Jan-15 10:07 33.796872 -118.335748 11 106ft 0kts
20-Jan-15 10:08 33.796875 -118.335747 11 106ft 0kts
20-Jan-15 10:09 33.796878 -118.335747 11 106ft 0kts
20-Jan-15 10:10 33.796880 -118.335746 11 106ft 0kts
20-Jan-15 10:11 33.799150 -118.333468 34 106ft 0kts
20-Jan-15 10:12 33.799151 -118.333467 34 106ft 0kts
20-Jan-15 10:13 33.802846 -118.337803 308 159ft 69kts
20-Jan-15 10:14 33.816397 -118.357230 302 1006ft 73kts
20-Jan-15 10:15 33.828923 -118.378986 302 1997ft 80kts
20-Jan-15 10:16 33.840071 -118.402477 264 2936ft 82kts
20-Jan-15 10:17 33.822706 -118.404528 139 3792ft 78kts
20-Jan-15 10:18 33.801904 -118.385993 146 4071ft 103kts
20-Jan-15 10:19 33.777635 -118.364104 142 4052ft 112kts
20-Jan-15 10:20 33.753195 -118.340861 137 4053ft 110kts
20-Jan-15 10:21 33.744689 -118.308312 101 3678ft 99kts
20-Jan-15 10:22 33.738259 -118.275414 101 3044ft 100kts
20-Jan-15 10:23 33.732241 -118.240843 99 3080ft 108kts
20-Jan-15 10:24 33.735052 -118.204907 66 3043ft 113kts
20-Jan-15 10:25 33.746035 -118.170073 70 3047ft 110kts
20-Jan-15 10:26 33.757373 -118.136239 64 3056ft 109kts
20-Jan-15 10:27 33.768359 -118.102113 69 3066ft 108kts
20-Jan-15 10:28 33.778534 -118.067743 71 3024ft 113kts
20-Jan-15 10:29 33.803184 -118.056470 352 3001ft 110kts
20-Jan-15 10:30 33.834145 -118.060066 354 2910ft 117kts
20-Jan-15 10:31 33.867688 -118.063598 354 2690ft 111kts
20-Jan-15 10:32 33.896540 -118.066628 354 2696ft 100kts
20-Jan-15 10:33 33.924169 -118.069565 345 2702ft 97kts
20-Jan-15 10:34 33.932410 -118.098896 270 2599ft 96kts
20-Jan-15 10:35 33.931894 -118.132039 267 2023ft 101kts
20-Jan-15 10:36 33.930732 -118.164379 266 1536ft 93kts
20-Jan-15 10:37 33.929362 -118.198108 267 1567ft 94kts
20-Jan-15 10:38 33.927884 -118.229338 266 1502ft 90kts
20-Jan-15 10:39 33.926306 -118.260189 266 1214ft 93kts
20-Jan-15 10:40 33.924991 -118.290510 267 615ft 83kts
20-Jan-15 10:41 33.923659 -118.320113 266 337ft 70kts
20-Jan-15 10:42 33.922972 -118.334885 304 69ft 14kts
20-Jan-15 10:43 33.923292 -118.335148 345 69ft 0kts
20-Jan-15 10:44 33.923662 -118.340205 169 69ft 0kts

Navigation Log

Ident Type
Flight plan parsing failed, navigation log unavailable